Portada
METAR-TAF:

METAR-TAF

Aeroports :

Bisha, Aràbia Saudita

latitud: 19-59N, longitud: 042-37E, altitud: 1167 m

Observació

L'informe es va fer fa 36 minuts, a les 06:00 UTC
Vent 6 kt del Est
Temperatura 31°C
Humitat 33%
Pressió 1016 hPa
Visibilitat 10 km o més
sense núvols per sota de 1500 mi sense presència de cumulonimbus.

METAR: OEBH 220600Z 10006KT CAVOK 31/13 Q1016 NOSIG

Hora: 09:36 (06:36 UTC)

Pronòstic

L'informe es va fer fa 7 hores i 36 minuts, a les 23:00 UTC
Pronòstic vàlid del 22 a les 00 UTC al 23 a les 06 UTC
Vent 3 kt amb direcció variable
Visibilitat: 7000 m
Escasses núvols a una alçada de 3000 ft
Evolucionant progressivament
l' 22 a les 06 UTC al 22 a les 08 UTC
Vent 14 kt del Est
Evolucionant progressivament
l' 22 a les 18 UTC al 22 a les 20 UTC
Vent 5 kt del Sud-Oest

TAF: OEBH 212300Z 2200/2306 VRB03KT 7000 FEW030 BECMG 2206/2208 09014KT BECMG 2218/2220 23005KT

Observacions i pronòstics meteorològics de més de 4000 aeroports (METAR i TAF).

Les estacions disponibles són els punts grocs i vermells al mapa.

Posi el ratolí al punt desitjat per veure el nom de l'estació.

Feu clic per veure les observacions i els pronòstics meteorològics.

Per canviar el mapa: feu clic els botons verds amb una creu de color negre per apropar; al botó verd amb un guió per allunyar la imatge; o en les fletxes verdes per a mapes adjacents.


METAR-TAF: